createdAt,value
2017-12-14T00:00:08.146Z,985.12
2017-12-14T00:01:17.573Z,985.12
2017-12-14T00:02:27.007Z,985.12
2017-12-14T00:03:36.684Z,985.03
2017-12-14T00:04:46.634Z,985.06
2017-12-14T00:05:56.060Z,985.02
2017-12-14T00:07:06.007Z,984.93
2017-12-14T00:08:15.953Z,984.91
2017-12-14T00:09:25.898Z,984.83
2017-12-14T00:10:35.672Z,984.66
2017-12-14T00:11:45.614Z,984.66
2017-12-14T00:12:55.558Z,984.6
2017-12-14T00:14:04.993Z,984.62
2017-12-14T00:15:14.703Z,984.53
2017-12-14T00:16:24.388Z,984.44
2017-12-14T00:17:34.067Z,984.64
2017-12-14T00:18:43.498Z,984.58
2017-12-14T00:19:53.207Z,984.43
2017-12-14T00:21:03.148Z,984.36
2017-12-14T00:22:13.085Z,984.3
2017-12-14T00:23:22.776Z,984.29
2017-12-14T00:24:32.737Z,984.29
2017-12-14T00:25:42.228Z,984.14
2017-12-14T00:26:52.184Z,984.11
2017-12-14T00:28:01.878Z,984.16
2017-12-14T00:29:11.835Z,984.08
2017-12-14T00:30:21.560Z,984.1
2017-12-14T00:31:31.509Z,984.09
2017-12-14T00:32:40.944Z,984.08
2017-12-14T00:33:50.643Z,984.08
2017-12-14T00:35:00.326Z,984.02
2017-12-14T00:36:10.282Z,984.07
2017-12-14T00:37:19.711Z,984.02
2017-12-14T00:38:29.649Z,983.98
2017-12-14T00:39:39.072Z,983.97
2017-12-14T00:40:48.492Z,983.94
2017-12-14T00:41:58.428Z,983.87
2017-12-14T00:43:08.386Z,983.81
2017-12-14T00:44:18.339Z,983.8
2017-12-14T00:45:28.028Z,983.67
2017-12-14T00:46:37.744Z,983.69
2017-12-14T00:47:47.707Z,983.66
2017-12-14T00:48:57.655Z,983.62
2017-12-14T00:50:07.596Z,983.59
2017-12-14T00:51:17.543Z,983.54
2017-12-14T00:52:26.973Z,983.57
2017-12-14T00:53:36.925Z,983.51
2017-12-14T00:54:46.856Z,983.53
2017-12-14T00:55:56.533Z,983.45
2017-12-14T00:57:06.222Z,983.39
2017-12-14T00:58:15.912Z,983.37
2017-12-14T00:59:25.353Z,983.35
2017-12-14T01:00:35.311Z,983.25
2017-12-14T01:01:45.001Z,983.32
2017-12-14T01:02:54.686Z,983.25
2017-12-14T01:04:04.382Z,983.24
2017-12-14T01:05:13.820Z,983.22
2017-12-14T01:06:23.508Z,983.13
2017-12-14T01:07:33.700Z,983.13
2017-12-14T01:08:43.662Z,983.13
2017-12-14T01:09:53.362Z,983.11
2017-12-14T01:11:03.070Z,983.04
2017-12-14T01:12:13.070Z,983
2017-12-14T01:13:23.007Z,983.02
2017-12-14T01:14:32.941Z,983.01
2017-12-14T01:15:42.905Z,982.98
2017-12-14T01:16:52.592Z,982.96
2017-12-14T01:18:02.542Z,982.96
2017-12-14T01:19:12.227Z,982.93
2017-12-14T01:20:22.175Z,982.83
2017-12-14T01:21:32.122Z,982.89
2017-12-14T01:22:42.061Z,982.86
2017-12-14T01:23:51.758Z,982.89
2017-12-14T01:25:01.707Z,982.85
2017-12-14T01:26:11.653Z,982.89
2017-12-14T01:27:21.589Z,982.81
2017-12-14T01:28:31.286Z,982.88
2017-12-14T01:29:40.726Z,982.86
2017-12-14T01:30:50.662Z,982.86
2017-12-14T01:32:00.093Z,982.88
2017-12-14T01:33:10.047Z,982.82
2017-12-14T01:34:19.479Z,982.76
2017-12-14T01:35:29.417Z,982.83
2017-12-14T01:36:39.356Z,982.8
2017-12-14T01:37:49.312Z,982.87
2017-12-14T01:38:58.732Z,982.8
2017-12-14T01:40:07.903Z,982.67
2017-12-14T01:41:17.836Z,982.65
2017-12-14T01:42:27.511Z,982.72
2017-12-14T01:43:37.191Z,982.78
2017-12-14T01:44:47.123Z,982.8
2017-12-14T01:45:56.551Z,982.75
2017-12-14T01:47:06.503Z,982.61
2017-12-14T01:48:16.201Z,982.58
2017-12-14T01:49:26.150Z,982.62
2017-12-14T01:50:36.086Z,982.6
2017-12-14T01:51:46.029Z,982.53
2017-12-14T01:52:55.982Z,982.58
2017-12-14T01:54:05.658Z,982.66
2017-12-14T01:55:15.593Z,982.57
2017-12-14T01:56:25.266Z,982.56
2017-12-14T01:57:34.946Z,982.46
2017-12-14T01:58:44.879Z,982.49
2017-12-14T01:59:54.306Z,982.55
2017-12-14T02:01:04.264Z,982.49
2017-12-14T02:02:13.696Z,982.4
2017-12-14T02:03:23.393Z,982.41
2017-12-14T02:04:32.556Z,982.45
2017-12-14T02:05:41.985Z,982.42
2017-12-14T02:06:51.666Z,982.41
2017-12-14T02:08:01.352Z,982.39
2017-12-14T02:09:10.508Z,982.35
2017-12-14T02:10:19.677Z,982.33
2017-12-14T02:11:29.100Z,982.36
2017-12-14T02:12:38.780Z,982.38
2017-12-14T02:13:48.720Z,982.37
2017-12-14T02:14:58.136Z,982.38
2017-12-14T02:16:07.882Z,982.35
2017-12-14T02:17:17.303Z,982.21
2017-12-14T02:18:26.986Z,982.26
2017-12-14T02:19:36.676Z,982.34
2017-12-14T02:20:46.358Z,982.27
2017-12-14T02:21:55.529Z,982.23
2017-12-14T02:23:04.765Z,982.22
2017-12-14T02:24:14.717Z,982.22
2017-12-14T02:25:24.657Z,982.15
2017-12-14T02:26:34.601Z,982.12
2017-12-14T02:27:44.027Z,982.13
2017-12-14T02:28:53.967Z,982.12
2017-12-14T02:30:03.125Z,981.99
2017-12-14T02:31:12.579Z,981.93
2017-12-14T02:32:22.283Z,981.99
2017-12-14T02:33:32.034Z,981.95
2017-12-14T02:34:41.743Z,981.92
2017-12-14T02:35:51.781Z,981.94
2017-12-14T02:37:01.733Z,981.97
2017-12-14T02:38:11.687Z,981.84
2017-12-14T02:39:21.889Z,981.85
2017-12-14T02:40:31.843Z,981.72
2017-12-14T02:41:41.524Z,981.72
2017-12-14T02:42:51.215Z,981.73
2017-12-14T02:44:01.223Z,981.71
2017-12-14T02:45:11.170Z,981.62
2017-12-14T02:46:20.857Z,981.65
2017-12-14T02:47:30.289Z,981.68
2017-12-14T02:48:39.998Z,981.64
2017-12-14T02:49:49.668Z,981.67
2017-12-14T02:50:58.832Z,981.61
2017-12-14T02:52:08.528Z,981.58
2017-12-14T02:53:18.200Z,981.51
2017-12-14T02:54:28.173Z,981.49
2017-12-14T02:55:37.920Z,981.52
2017-12-14T02:56:47.363Z,981.54
2017-12-14T02:57:57.048Z,981.42
2017-12-14T02:59:06.735Z,981.46
2017-12-14T03:00:16.160Z,981.41
2017-12-14T03:01:25.619Z,981.49
2017-12-14T03:02:35.308Z,981.49
2017-12-14T03:03:45.269Z,981.41
2017-12-14T03:04:54.943Z,981.42
2017-12-14T03:06:04.881Z,981.44
2017-12-14T03:07:14.817Z,981.45
2017-12-14T03:08:24.760Z,981.43
2017-12-14T03:09:34.188Z,981.37
2017-12-14T03:10:44.125Z,981.44
2017-12-14T03:11:54.068Z,981.47
2017-12-14T03:13:04.015Z,981.47
2017-12-14T03:14:13.709Z,981.55
2017-12-14T03:15:22.621Z,981.6
2017-12-14T03:16:32.548Z,981.47
2017-12-14T03:17:42.244Z,981.54
2017-12-14T03:18:51.669Z,981.68
2017-12-14T03:20:01.614Z,981.75
2017-12-14T03:21:11.295Z,981.78
2017-12-14T03:22:21.487Z,981.52
2017-12-14T03:23:31.432Z,981.62
2017-12-14T03:24:41.370Z,981.51
2017-12-14T03:25:51.047Z,981.55
2017-12-14T03:27:00.734Z,981.47
2017-12-14T03:28:10.425Z,981.45
2017-12-14T03:29:19.600Z,981.34
2017-12-14T03:30:29.540Z,981.39
2017-12-14T03:31:39.230Z,981.52
2017-12-14T03:32:48.969Z,981.57
2017-12-14T03:33:58.660Z,981.78
2017-12-14T03:35:08.609Z,981.76
2017-12-14T03:36:18.559Z,981.71
2017-12-14T03:37:28.495Z,981.62
2017-12-14T03:38:37.913Z,981.59
2017-12-14T03:39:47.848Z,981.56
2017-12-14T03:40:57.800Z,981.44
2017-12-14T03:42:07.747Z,981.5
2017-12-14T03:43:17.433Z,981.57
2017-12-14T03:44:27.388Z,981.54
2017-12-14T03:45:37.327Z,981.73
2017-12-14T03:46:46.745Z,981.68
2017-12-14T03:47:56.424Z,981.67
2017-12-14T03:49:06.158Z,981.65
2017-12-14T03:50:15.586Z,981.68
2017-12-14T03:51:25.270Z,981.69
2017-12-14T03:52:34.708Z,981.67
2017-12-14T03:53:44.388Z,981.68
2017-12-14T04:03:09.381Z,981.85
2017-12-14T04:04:18.820Z,981.71
2017-12-14T04:05:28.769Z,981.97
2017-12-14T04:06:38.467Z,981.83
2017-12-14T04:07:48.153Z,981.95
2017-12-14T04:08:57.848Z,981.78
2017-12-14T04:10:07.789Z,982.02
2017-12-14T04:11:17.493Z,981.9
2017-12-14T04:12:27.189Z,981.95
2017-12-14T04:13:37.128Z,981.84
2017-12-14T04:14:46.816Z,981.89
2017-12-14T04:15:56.751Z,982.07
2017-12-14T04:17:06.433Z,982.07
2017-12-14T04:18:16.121Z,981.94
2017-12-14T04:19:25.829Z,981.98
2017-12-14T04:20:35.771Z,982.1
2017-12-14T04:21:45.705Z,981.99
2017-12-14T04:22:55.667Z,982.01
2017-12-14T04:24:05.136Z,981.95
2017-12-14T04:25:15.106Z,981.91
2017-12-14T04:26:25.051Z,982.19
2017-12-14T04:27:34.998Z,981.96
2017-12-14T04:28:44.935Z,981.91
2017-12-14T04:29:55.028Z,981.94
2017-12-14T04:31:04.969Z,981.83
2017-12-14T04:32:14.904Z,981.95
2017-12-14T04:33:24.587Z,981.96
2017-12-14T04:34:34.272Z,982
2017-12-14T04:35:44.457Z,981.97
2017-12-14T04:36:54.405Z,981.9
2017-12-14T04:38:03.838Z,981.9
2017-12-14T04:39:13.530Z,981.9
2017-12-14T04:40:22.956Z,982.05
2017-12-14T04:41:32.669Z,981.97
2017-12-14T04:42:42.355Z,981.93
2017-12-14T04:43:51.530Z,981.94
2017-12-14T04:45:01.470Z,981.93
2017-12-14T04:46:10.902Z,981.99
2017-12-14T04:47:20.587Z,982.23
2017-12-14T04:48:30.014Z,981.96
2017-12-14T04:49:39.706Z,982.06
2017-12-14T04:50:49.660Z,982.21
2017-12-14T04:51:59.404Z,982.03
2017-12-14T04:53:08.842Z,982.13
2017-12-14T04:54:18.524Z,982.07
2017-12-14T04:55:28.236Z,982.11
2017-12-14T04:56:38.176Z,982
2017-12-14T04:57:47.862Z,982
2017-12-14T04:58:57.611Z,982.04
2017-12-14T05:00:07.561Z,982.04
2017-12-14T05:01:17.250Z,982.13
2017-12-14T05:02:27.189Z,982.12
2017-12-14T05:03:37.128Z,982.12
2017-12-14T05:04:47.072Z,982.12
2017-12-14T05:05:57.022Z,982.06
2017-12-14T05:07:06.440Z,982.11
2017-12-14T05:08:15.876Z,982.12
2017-12-14T05:09:25.844Z,982.12
2017-12-14T05:10:35.522Z,982.13
2017-12-14T05:11:45.203Z,982.17
2017-12-14T05:12:54.897Z,982.17
2017-12-14T05:14:04.581Z,982.22
2017-12-14T05:15:14.272Z,982.11
2017-12-14T05:16:23.706Z,982.23
2017-12-14T05:17:33.132Z,982.18
2017-12-14T05:18:42.815Z,982.21
2017-12-14T05:19:52.487Z,982.21
2017-12-14T05:21:02.431Z,982.11
2017-12-14T05:22:12.368Z,982.17
2017-12-14T05:23:22.060Z,982.12
2017-12-14T05:24:31.749Z,982.18
2017-12-14T05:25:41.183Z,982.24
2017-12-14T05:26:50.622Z,982.2
2017-12-14T05:28:00.591Z,982.2
2017-12-14T05:29:10.553Z,982.24
2017-12-14T05:30:20.275Z,982.24
2017-12-14T05:31:30.225Z,982.28
2017-12-14T05:32:40.187Z,982.25
2017-12-14T05:33:50.146Z,982.25
2017-12-14T05:35:00.102Z,982.29
2017-12-14T05:36:09.783Z,982.31
2017-12-14T05:37:19.465Z,982.32
2017-12-14T05:38:28.887Z,982.29
2017-12-14T05:39:38.319Z,982.35
2017-12-14T05:40:48.260Z,982.39
2017-12-14T05:41:57.999Z,982.46
2017-12-14T05:43:07.701Z,982.36
2017-12-14T05:44:17.146Z,982.48
2017-12-14T05:45:27.113Z,982.45
2017-12-14T05:46:37.070Z,982.48
2017-12-14T05:47:47.009Z,982.44
2017-12-14T05:48:56.701Z,982.38
2017-12-14T05:50:06.132Z,982.46
2017-12-14T05:51:16.079Z,982.58
2017-12-14T05:52:26.016Z,982.43
2017-12-14T05:53:35.701Z,982.23
2017-12-14T05:54:45.131Z,982.57
2017-12-14T05:55:55.084Z,982.49
2017-12-14T05:57:05.028Z,982.55
2017-12-14T05:58:14.964Z,982.67
2017-12-14T05:59:24.414Z,982.58
2017-12-14T06:00:34.101Z,982.61
2017-12-14T06:01:44.071Z,982.59
2017-12-14T06:02:54.017Z,982.49
2017-12-14T06:04:03.961Z,982.52
2017-12-14T06:05:13.383Z,982.6
2017-12-14T06:06:23.076Z,982.56
2017-12-14T06:07:32.784Z,982.57
2017-12-14T06:08:42.745Z,982.55
2017-12-14T06:09:52.770Z,982.66
2017-12-14T06:11:02.191Z,982.77
2017-12-14T06:12:12.135Z,982.59
2017-12-14T06:13:21.838Z,982.79
2017-12-14T06:14:31.276Z,982.88
2017-12-14T06:15:41.230Z,982.94
2017-12-14T06:16:50.924Z,982.62
2017-12-14T06:18:00.614Z,982.88
2017-12-14T06:19:09.781Z,982.84
2017-12-14T06:20:19.693Z,982.86
2017-12-14T06:21:29.633Z,983.01
2017-12-14T06:22:39.319Z,982.91
2017-12-14T06:23:49.269Z,983.02
2017-12-14T06:24:58.955Z,982.85
2017-12-14T06:26:08.657Z,982.8
2017-12-14T06:27:18.335Z,982.91
2017-12-14T06:28:28.283Z,983.02
2017-12-14T06:29:38.237Z,982.97
2017-12-14T06:30:48.190Z,982.86
2017-12-14T06:31:57.874Z,982.96
2017-12-14T06:33:07.828Z,982.98
2017-12-14T06:34:17.312Z,983.09
2017-12-14T06:35:26.998Z,982.98
2017-12-14T06:36:36.182Z,982.94
2017-12-14T06:37:46.127Z,983.06
2017-12-14T06:38:56.069Z,982.8
2017-12-14T06:40:06.010Z,982.83
2017-12-14T06:41:15.947Z,982.83
2017-12-14T06:42:25.902Z,982.88
2017-12-14T06:43:35.336Z,982.89
2017-12-14T06:44:45.294Z,982.92
2017-12-14T06:45:55.046Z,982.82
2017-12-14T06:47:04.986Z,982.8
2017-12-14T06:48:14.691Z,982.81
2017-12-14T06:49:23.863Z,982.73
2017-12-14T06:50:33.698Z,982.9
2017-12-14T06:51:43.401Z,982.98
2017-12-14T06:52:53.349Z,982.94
2017-12-14T06:54:03.039Z,983.02
2017-12-14T06:55:12.994Z,982.99
2017-12-14T06:56:22.688Z,983.06
2017-12-14T06:57:32.416Z,983.03
2017-12-14T06:58:42.461Z,982.99
2017-12-14T06:59:52.409Z,982.99
2017-12-14T07:01:02.098Z,983.07
2017-12-14T07:02:11.799Z,982.98
2017-12-14T07:03:21.478Z,983.01
2017-12-14T07:04:31.175Z,982.99
2017-12-14T07:05:41.148Z,982.71
2017-12-14T07:06:51.105Z,982.97
2017-12-14T07:08:01.066Z,983
2017-12-14T07:09:10.778Z,982.98
2017-12-14T07:10:20.750Z,982.99
2017-12-14T07:11:30.556Z,983.02
2017-12-14T07:12:40.520Z,982.81
2017-12-14T07:13:50.230Z,982.86
2017-12-14T07:14:59.926Z,982.82
2017-12-14T07:16:09.645Z,982.97
2017-12-14T07:17:19.357Z,982.96
2017-12-14T07:18:29.058Z,982.96
2017-12-14T07:19:38.813Z,983.02
2017-12-14T07:20:48.526Z,982.89
2017-12-14T07:21:58.237Z,982.92
2017-12-14T07:23:07.673Z,982.98
2017-12-14T07:24:17.632Z,982.97
2017-12-14T07:25:27.594Z,982.9
2017-12-14T07:26:37.549Z,982.81
2017-12-14T07:27:47.513Z,982.81
2017-12-14T07:28:57.218Z,982.81
2017-12-14T07:30:07.181Z,982.84
2017-12-14T07:31:16.897Z,982.85
2017-12-14T07:32:26.845Z,982.85
2017-12-14T07:33:36.810Z,982.91
2017-12-14T07:34:46.251Z,982.96
2017-12-14T07:35:55.723Z,982.95
2017-12-14T07:37:05.467Z,982.98
2017-12-14T07:38:15.164Z,982.94
2017-12-14T07:39:25.156Z,982.93
2017-12-14T07:40:35.131Z,982.91
2017-12-14T07:41:44.833Z,982.9
2017-12-14T07:42:54.536Z,982.95
2017-12-14T07:44:04.223Z,982.96
2017-12-14T07:45:13.694Z,983.04
2017-12-14T07:46:23.427Z,983.05
2017-12-14T07:47:33.383Z,983.11
2017-12-14T07:48:42.560Z,983.11
2017-12-14T07:49:52.270Z,983.12
2017-12-14T07:51:02.239Z,983.08
2017-12-14T07:52:12.183Z,983.05
2017-12-14T07:53:22.185Z,983.03
2017-12-14T07:54:32.143Z,983.04
2017-12-14T07:55:41.852Z,983
2017-12-14T07:56:51.596Z,982.96
2017-12-14T07:58:01.015Z,983.11
2017-12-14T07:59:10.712Z,983.01
2017-12-14T08:00:20.913Z,983.01
2017-12-14T08:01:30.623Z,982.97
2017-12-14T08:02:40.331Z,982.95
2017-12-14T08:03:50.027Z,982.91
2017-12-14T08:05:00.040Z,982.92
2017-12-14T08:06:09.506Z,982.94
2017-12-14T08:07:19.461Z,982.93
2017-12-14T08:08:29.184Z,982.87
2017-12-14T08:09:38.620Z,982.9
2017-12-14T08:10:48.604Z,982.92
2017-12-14T08:11:58.560Z,982.96
2017-12-14T08:13:08.566Z,982.94
2017-12-14T08:14:18.017Z,983.05
2017-12-14T08:15:27.986Z,983.05
2017-12-14T08:16:37.435Z,983.1
2017-12-14T08:17:47.415Z,983.09
2017-12-14T08:18:57.119Z,983.08
2017-12-14T08:20:06.809Z,983.06
2017-12-14T08:21:16.240Z,983.1
2017-12-14T08:22:26.216Z,983.08
2017-12-14T08:23:35.656Z,983.07
2017-12-14T08:24:45.607Z,983.11
2017-12-14T08:25:55.316Z,983.1
2017-12-14T08:27:04.781Z,983.15
2017-12-14T08:28:14.816Z,983.15
2017-12-14T08:29:24.271Z,983.18
2017-12-14T08:30:33.977Z,983.18
2017-12-14T08:31:43.678Z,983.19
2017-12-14T08:32:53.113Z,983.16
2017-12-14T08:34:02.615Z,983.15
2017-12-14T08:35:12.059Z,983.11
2017-12-14T08:36:21.813Z,983.19
2017-12-14T08:37:31.745Z,983.14
2017-12-14T08:38:41.723Z,983.17
2017-12-14T08:39:51.713Z,983.17
2017-12-14T08:41:01.186Z,983.23
2017-12-14T08:42:11.149Z,983.2
2017-12-14T08:43:21.339Z,983.23
2017-12-14T08:44:31.043Z,983.23
2017-12-14T08:45:40.736Z,983.25
2017-12-14T08:46:50.711Z,983.27
2017-12-14T08:48:00.168Z,983.26
2017-12-14T08:49:10.137Z,983.27
2017-12-14T08:50:19.573Z,983.29
2017-12-14T08:51:29.275Z,983.26
2017-12-14T08:52:39.609Z,983.26
2017-12-14T08:53:49.603Z,983.32
2017-12-14T08:54:59.046Z,983.3
2017-12-14T08:56:08.750Z,983.3
2017-12-14T08:57:18.741Z,983.36
2017-12-14T08:58:28.195Z,983.34
2017-12-14T08:59:37.914Z,983.34
2017-12-14T09:00:47.370Z,983.32
2017-12-14T09:01:57.111Z,983.31
2017-12-14T09:03:06.822Z,983.31
2017-12-14T09:04:16.514Z,983.34
2017-12-14T09:05:26.201Z,983.31
2017-12-14T09:06:36.190Z,983.28
2017-12-14T09:07:46.371Z,983.32
2017-12-14T09:08:56.089Z,983.31
2017-12-14T09:10:05.790Z,983.33
2017-12-14T09:11:15.776Z,983.36
2017-12-14T09:12:25.206Z,983.35
2017-12-14T09:13:35.154Z,983.37
2017-12-14T09:14:44.849Z,983.37
2017-12-14T09:15:54.620Z,983.37
2017-12-14T09:17:04.584Z,983.37
2017-12-14T09:18:14.289Z,983.37
2017-12-14T09:19:23.968Z,983.4
2017-12-14T09:20:33.938Z,983.42
2017-12-14T09:21:43.371Z,983.46
2017-12-14T09:22:52.556Z,983.45
2017-12-14T09:24:02.511Z,983.48
2017-12-14T09:25:12.212Z,983.46
2017-12-14T09:26:22.168Z,983.47
2017-12-14T09:27:32.157Z,983.51
2017-12-14T09:28:42.137Z,983.56
2017-12-14T09:29:51.840Z,983.55
2017-12-14T09:31:01.539Z,983.53
2017-12-14T09:32:11.245Z,983.54
2017-12-14T09:33:21.008Z,983.57
2017-12-14T09:34:30.964Z,983.62
2017-12-14T09:35:40.419Z,983.56
2017-12-14T09:36:50.362Z,983.58
2017-12-14T09:38:00.316Z,983.61
2017-12-14T09:39:10.018Z,983.71
2017-12-14T09:40:19.982Z,983.62
2017-12-14T09:41:29.952Z,983.65
2017-12-14T09:42:39.647Z,983.67
2017-12-14T09:43:49.852Z,983.66
2017-12-14T09:44:59.561Z,983.59
2017-12-14T09:46:09.252Z,983.62
2017-12-14T09:47:18.715Z,983.63
2017-12-14T09:48:28.667Z,983.69
2017-12-14T09:49:38.624Z,983.67
2017-12-14T09:50:48.611Z,983.72
2017-12-14T09:51:58.306Z,983.72
2017-12-14T09:53:08.268Z,983.7
2017-12-14T09:54:17.999Z,983.74
2017-12-14T09:55:27.955Z,983.75
2017-12-14T09:56:37.674Z,983.73
2017-12-14T09:57:47.392Z,983.8
2017-12-14T09:58:56.853Z,983.78
2017-12-14T10:00:06.853Z,983.83
2017-12-14T10:01:16.296Z,983.84
2017-12-14T10:02:26.266Z,983.77
2017-12-14T10:03:36.250Z,983.89
2017-12-14T10:04:45.956Z,983.93
2017-12-14T10:05:55.383Z,983.81
2017-12-14T10:07:05.336Z,983.82
2017-12-14T10:08:15.034Z,983.86
2017-12-14T10:09:25.224Z,983.98
2017-12-14T10:10:34.726Z,983.92
2017-12-14T10:11:44.418Z,984.11
2017-12-14T10:12:54.001Z,984
2017-12-14T10:14:03.962Z,983.99
2017-12-14T10:15:13.656Z,983.96
2017-12-14T10:16:23.368Z,984.16
2017-12-14T10:17:33.068Z,983.97
2017-12-14T10:18:43.015Z,984.1
2017-12-14T10:19:52.460Z,984.09
2017-12-14T10:21:01.638Z,984.01
2017-12-14T10:22:11.605Z,984.17
2017-12-14T10:23:21.048Z,984.14
2017-12-14T10:24:30.734Z,984.1
2017-12-14T10:25:40.684Z,984.22
2017-12-14T10:26:50.391Z,984.11
2017-12-14T10:28:00.075Z,984.26
2017-12-14T10:29:09.770Z,984.16
2017-12-14T10:30:18.945Z,984.18
2017-12-14T10:31:28.912Z,984.18
2017-12-14T10:32:38.611Z,984.18
2017-12-14T10:33:48.626Z,984.17
2017-12-14T10:34:58.457Z,984.08
2017-12-14T10:36:08.421Z,984.31
2017-12-14T10:37:18.129Z,984.32
2017-12-14T10:38:27.566Z,984.3
2017-12-14T10:39:37.041Z,984.3
2017-12-14T10:40:46.809Z,984.31
2017-12-14T10:41:56.786Z,984.27
2017-12-14T10:43:06.788Z,984.29
2017-12-14T10:44:16.493Z,984.31
2017-12-14T10:45:26.404Z,984.44
2017-12-14T10:46:36.369Z,984.39
2017-12-14T10:47:46.232Z,984.27
2017-12-14T10:48:56.217Z,984.37
2017-12-14T10:50:05.828Z,984.44
2017-12-14T10:51:15.384Z,984.34
2017-12-14T10:52:25.374Z,984.37
2017-12-14T10:53:35.070Z,984.41
2017-12-14T10:54:44.535Z,984.35
2017-12-14T10:55:54.228Z,984.43
2017-12-14T10:57:03.668Z,984.43
2017-12-14T10:58:13.460Z,984.6
2017-12-14T10:59:23.434Z,984.48
2017-12-14T11:00:33.415Z,984.56
2017-12-14T11:01:43.258Z,984.54
2017-12-14T11:02:53.244Z,984.6
2017-12-14T11:04:02.986Z,984.49
2017-12-14T11:05:12.695Z,984.59
2017-12-14T11:06:22.793Z,984.66
2017-12-14T11:07:32.521Z,984.51
2017-12-14T11:08:42.526Z,984.75
2017-12-14T11:09:52.537Z,984.69
2017-12-14T11:11:01.977Z,984.72
2017-12-14T11:12:11.682Z,984.75
2017-12-14T11:13:21.384Z,984.81
2017-12-14T11:14:31.406Z,984.95
2017-12-14T11:15:41.101Z,984.92
2017-12-14T11:16:51.062Z,984.88
2017-12-14T11:18:01.010Z,984.79
2017-12-14T11:19:10.434Z,984.83
2017-12-14T11:20:19.871Z,984.83
2017-12-14T11:21:29.844Z,984.99
2017-12-14T11:22:39.535Z,984.98
2017-12-14T11:23:49.510Z,984.93
2017-12-14T11:24:59.490Z,985.05
2017-12-14T11:26:09.181Z,984.85
2017-12-14T11:27:18.885Z,985.26
2017-12-14T11:28:28.854Z,985.11
2017-12-14T11:29:38.553Z,985.04
2017-12-14T11:30:48.349Z,985.16
2017-12-14T11:31:58.036Z,985.07
2017-12-14T11:33:08.019Z,985.08
2017-12-14T11:34:17.977Z,985.07
2017-12-14T11:35:27.681Z,985.14
2017-12-14T11:36:37.358Z,985.17
2017-12-14T11:37:47.334Z,985.23
2017-12-14T11:38:57.288Z,985.16
2017-12-14T11:40:07.239Z,985.09
2017-12-14T11:41:17.177Z,985.24
2017-12-14T11:42:27.137Z,985.3
2017-12-14T11:43:37.092Z,985.2
2017-12-14T11:44:46.587Z,985.29
2017-12-14T11:45:56.033Z,985.4
2017-12-14T11:47:05.999Z,985.35
2017-12-14T11:48:15.729Z,985.41
2017-12-14T11:49:25.688Z,985.32
2017-12-14T11:50:35.386Z,985.35
2017-12-14T11:51:45.083Z,985.38
2017-12-14T11:52:55.040Z,985.48
2017-12-14T11:54:04.976Z,985.3
2017-12-14T11:55:14.677Z,985.3
2017-12-14T11:56:24.626Z,985.29
2017-12-14T11:57:34.592Z,985.39
2017-12-14T11:58:44.039Z,985.35
2017-12-14T11:59:53.221Z,985.42
2017-12-14T12:01:02.905Z,985.42
2017-12-14T12:02:12.601Z,985.4
2017-12-14T12:03:22.062Z,985.31
2017-12-14T12:04:32.030Z,985.44
2017-12-14T12:05:41.466Z,985.53
2017-12-14T12:06:51.170Z,985.63
2017-12-14T12:08:00.855Z,985.76
2017-12-14T12:09:10.551Z,985.66
2017-12-14T12:10:20.551Z,985.63
2017-12-14T12:11:30.580Z,985.73
2017-12-14T12:12:39.794Z,985.7
2017-12-14T12:13:49.483Z,985.74
2017-12-14T12:14:58.921Z,985.77
2017-12-14T12:16:08.613Z,985.71
2017-12-14T12:17:18.339Z,985.93
2017-12-14T12:18:28.113Z,985.72
2017-12-14T12:19:37.576Z,985.77
2017-12-14T12:20:47.537Z,985.65
2017-12-14T12:21:57.230Z,985.73
2017-12-14T12:23:07.224Z,985.94
2017-12-14T12:24:16.663Z,985.79
2017-12-14T12:25:26.624Z,985.76
2017-12-14T12:26:36.316Z,985.75
2017-12-14T12:27:46.296Z,985.81
2017-12-14T12:28:55.730Z,985.84
2017-12-14T12:30:05.421Z,985.83
2017-12-14T12:31:15.365Z,985.89
2017-12-14T12:32:25.083Z,985.95
2017-12-14T12:33:34.771Z,986.02
2017-12-14T12:34:44.714Z,985.9
2017-12-14T12:35:53.888Z,986.11
2017-12-14T12:37:03.851Z,986.32
2017-12-14T12:38:13.566Z,986.12
2017-12-14T12:39:23.268Z,986.34
2017-12-14T12:40:32.990Z,986.35
2017-12-14T12:41:43.074Z,986.2
2017-12-14T12:42:52.810Z,986.2
2017-12-14T12:44:02.758Z,986.2
2017-12-14T12:45:12.448Z,986.26
2017-12-14T12:46:22.398Z,986.31
2017-12-14T12:47:32.091Z,986.28
2017-12-14T12:48:42.060Z,986.22
2017-12-14T12:49:51.756Z,986.2
2017-12-14T12:51:01.188Z,986.26
2017-12-14T12:52:10.877Z,986.3
2017-12-14T12:53:20.844Z,986.24
2017-12-14T12:54:30.274Z,986.43
2017-12-14T12:55:40.009Z,986.36
2017-12-14T12:56:49.721Z,986.44
2017-12-14T12:57:59.747Z,986.43
2017-12-14T12:59:09.417Z,986.54
2017-12-14T13:00:19.122Z,986.44
2017-12-14T13:01:29.090Z,986.49
2017-12-14T13:02:39.051Z,986.54
2017-12-14T13:03:48.996Z,986.52
2017-12-14T13:04:58.945Z,986.58
2017-12-14T13:06:09.013Z,986.52
2017-12-14T13:07:18.706Z,986.59
2017-12-14T13:08:28.665Z,986.64
2017-12-14T13:09:38.384Z,986.63
2017-12-14T13:10:48.090Z,986.55
2017-12-14T13:11:57.795Z,986.7
2017-12-14T13:13:07.490Z,986.69
2017-12-14T13:14:17.445Z,986.66
2017-12-14T13:15:26.887Z,986.65
2017-12-14T13:16:36.609Z,986.63
2017-12-14T13:17:46.596Z,986.62
2017-12-14T13:18:56.567Z,986.67
2017-12-14T13:20:06.530Z,986.76
2017-12-14T13:21:15.976Z,986.87
2017-12-14T13:22:25.920Z,986.81
2017-12-14T13:23:35.355Z,986.7
2017-12-14T13:24:45.315Z,986.8
2017-12-14T13:25:55.025Z,986.82
2017-12-14T13:27:04.994Z,986.92
2017-12-14T13:28:14.951Z,986.79
2017-12-14T13:29:24.774Z,986.77
2017-12-14T13:30:34.709Z,986.79
2017-12-14T13:31:44.425Z,986.89
2017-12-14T13:32:54.378Z,986.92
2017-12-14T13:34:04.380Z,986.88
2017-12-14T13:35:14.344Z,986.93
2017-12-14T13:36:24.036Z,986.85
2017-12-14T13:37:33.989Z,986.76
2017-12-14T13:38:43.936Z,986.83
2017-12-14T13:39:53.377Z,986.96
2017-12-14T13:41:03.334Z,987.01
2017-12-14T13:42:13.046Z,987.08
2017-12-14T13:43:23.006Z,987.02
2017-12-14T13:44:32.988Z,987.02
2017-12-14T13:45:42.155Z,987.36
2017-12-14T13:46:51.592Z,987
2017-12-14T13:48:01.557Z,987.08
2017-12-14T13:49:11.007Z,987.09
2017-12-14T13:50:20.990Z,987.09
2017-12-14T13:51:30.947Z,987.07
2017-12-14T13:52:40.140Z,987.11
2017-12-14T13:53:50.152Z,987.08
2017-12-14T13:54:59.839Z,987.09
2017-12-14T13:56:09.902Z,987.07
2017-12-14T13:57:19.905Z,987.1
2017-12-14T13:58:29.340Z,987.04
2017-12-14T13:59:39.035Z,987.01
2017-12-14T14:00:48.984Z,987.04
2017-12-14T14:01:58.770Z,986.96
2017-12-14T14:03:08.455Z,986.98
2017-12-14T14:04:18.439Z,987.05
2017-12-14T14:05:28.138Z,986.97
2017-12-14T14:06:38.112Z,986.98
2017-12-14T14:07:47.811Z,986.97
2017-12-14T14:08:57.786Z,986.97
2017-12-14T14:10:06.962Z,986.96
2017-12-14T14:11:16.645Z,986.98
2017-12-14T14:12:26.337Z,986.97
2017-12-14T14:13:36.033Z,987
2017-12-14T14:14:45.754Z,986.88
2017-12-14T14:15:55.462Z,987.02
2017-12-14T14:17:05.170Z,986.99
2017-12-14T14:18:14.875Z,987
2017-12-14T14:19:24.824Z,986.97
2017-12-14T14:20:34.770Z,986.89
2017-12-14T14:21:44.458Z,986.92
2017-12-14T14:22:54.142Z,986.93
2017-12-14T14:24:04.103Z,987.02
2017-12-14T14:25:13.778Z,986.91
2017-12-14T14:26:23.750Z,986.91
2017-12-14T14:27:33.439Z,986.89
2017-12-14T14:28:42.884Z,986.93
2017-12-14T14:29:52.641Z,986.94
2017-12-14T14:31:02.345Z,986.92
2017-12-14T14:32:12.304Z,986.93
2017-12-14T14:33:22.003Z,986.79
2017-12-14T14:34:31.950Z,986.92
2017-12-14T14:35:41.656Z,986.84
2017-12-14T14:36:51.367Z,986.89
2017-12-14T14:38:01.047Z,986.86
2017-12-14T14:39:10.237Z,986.84
2017-12-14T14:40:20.035Z,986.77
2017-12-14T14:41:29.727Z,986.71